createdAt,value
2022-10-14T00:00:45.099Z,61.23
2022-10-14T00:01:42.368Z,60.65
2022-10-14T00:02:39.158Z,61.09
2022-10-14T00:03:37.847Z,61.36
2022-10-14T00:04:34.448Z,60.60
2022-10-14T00:05:31.173Z,60.63
2022-10-14T00:06:30.425Z,60.49
2022-10-14T00:07:27.007Z,61.30
2022-10-14T00:08:25.188Z,61.18
2022-10-14T00:09:22.028Z,61.40
2022-10-14T00:10:20.801Z,61.19
2022-10-14T00:11:21.645Z,62.03
2022-10-14T00:12:18.243Z,62.50
2022-10-14T00:13:14.778Z,61.87
2022-10-14T00:14:15.659Z,62.06
2022-10-14T00:15:12.265Z,61.48
2022-10-14T00:16:20.696Z,62.24
2022-10-14T00:17:17.414Z,61.96
2022-10-14T00:18:14.258Z,62.91
2022-10-14T00:19:12.709Z,62.58
2022-10-14T00:20:09.697Z,62.50
2022-10-14T00:21:06.769Z,62.00
2022-10-14T00:22:03.486Z,61.86
2022-10-14T00:23:00.179Z,61.39
2022-10-14T00:23:57.798Z,61.93
2022-10-14T00:24:54.547Z,62.49
2022-10-14T00:25:51.456Z,62.69
2022-10-14T00:26:48.017Z,63.35
2022-10-14T00:27:44.647Z,62.59
2022-10-14T00:28:41.395Z,62.07
2022-10-14T00:29:38.727Z,61.87
2022-10-14T00:30:35.285Z,61.79
2022-10-14T00:31:32.879Z,62.10
2022-10-14T00:32:29.481Z,62.18
2022-10-14T00:33:27.001Z,63.07
2022-10-14T00:34:23.591Z,61.93
2022-10-14T00:35:20.151Z,62.65
2022-10-14T00:36:20.130Z,63.24
2022-10-14T00:37:16.751Z,63.46
2022-10-14T00:38:13.295Z,63.36
2022-10-14T00:39:10.499Z,63.89
2022-10-14T00:40:07.553Z,63.23
2022-10-14T00:41:04.840Z,62.79
2022-10-14T00:42:01.600Z,62.94
2022-10-14T00:42:58.171Z,63.47
2022-10-14T00:44:13.073Z,63.26
2022-10-14T00:45:14.283Z,63.24
2022-10-14T00:46:11.868Z,63.61
2022-10-14T00:47:08.688Z,63.89
2022-10-14T00:48:05.803Z,64.45
2022-10-14T00:49:15.521Z,64.23
2022-10-14T00:50:13.601Z,63.36
2022-10-14T00:51:10.683Z,63.73
2022-10-14T00:52:27.670Z,65.01
2022-10-14T00:53:24.448Z,63.77
2022-10-14T00:54:24.375Z,64.21
2022-10-14T00:55:21.052Z,63.75
2022-10-14T00:56:27.729Z,63.73
2022-10-14T00:57:25.859Z,64.88
2022-10-14T00:58:22.437Z,65.11
2022-10-14T00:59:19.405Z,64.98
2022-10-14T01:00:19.128Z,65.14
2022-10-14T01:01:15.802Z,65.14
2022-10-14T01:02:12.428Z,65.42
2022-10-14T01:03:19.873Z,65.06
2022-10-14T01:04:16.555Z,64.87
2022-10-14T01:05:15.149Z,65.61
2022-10-14T01:07:01.039Z,65.90
2022-10-14T01:08:11.024Z,66.50
2022-10-14T01:09:13.602Z,66.30
2022-10-14T01:10:13.057Z,65.78
2022-10-14T01:11:31.632Z,65.43
2022-10-14T01:12:40.601Z,65.48
2022-10-14T01:13:43.591Z,66.09
2022-10-14T01:14:52.530Z,66.55
2022-10-14T01:16:10.340Z,65.62
2022-10-14T01:17:18.524Z,65.62
2022-10-14T01:18:29.292Z,66.55
2022-10-14T01:19:59.639Z,66.98
2022-10-14T01:21:14.813Z,66.30
2022-10-14T01:22:27.451Z,66.26
2022-10-14T01:23:49.078Z,66.56
2022-10-14T01:25:19.884Z,67.90
2022-10-14T01:26:53.861Z,66.79
2022-10-14T01:28:21.713Z,66.93
2022-10-14T01:29:41.214Z,67.27
2022-10-14T01:30:50.362Z,66.91
2022-10-14T01:31:57.491Z,66.65
2022-10-14T01:33:09.877Z,66.95
2022-10-14T01:34:10.820Z,66.87
2022-10-14T01:35:23.047Z,67.74
2022-10-14T01:36:33.768Z,68.55
2022-10-14T01:37:33.023Z,68.47
2022-10-14T01:38:34.610Z,68.72
2022-10-14T01:39:37.949Z,68.62
2022-10-14T01:40:52.930Z,69.38
2022-10-14T01:42:02.825Z,69.80
2022-10-14T01:43:02.529Z,68.99
2022-10-14T01:44:04.333Z,68.83
2022-10-14T01:45:09.271Z,70.03
2022-10-14T01:46:08.221Z,70.46
2022-10-14T01:47:06.736Z,70.97
2022-10-14T01:48:06.407Z,70.44
2022-10-14T01:49:09.830Z,70.25
2022-10-14T01:50:15.226Z,70.20
2022-10-14T01:51:17.818Z,70.50
2022-10-14T01:52:20.062Z,70.79
2022-10-14T01:53:42.308Z,68.50
2022-10-14T01:54:42.898Z,67.95
2022-10-14T01:55:43.612Z,68.21
2022-10-14T01:56:43.382Z,68.21
2022-10-14T01:57:43.284Z,68.04
2022-10-14T01:58:41.199Z,67.23
2022-10-14T01:59:40.312Z,67.87
2022-10-14T02:00:38.229Z,68.54
2022-10-14T02:01:36.698Z,67.61
2022-10-14T02:02:37.251Z,67.55
2022-10-14T02:03:45.939Z,67.71
2022-10-14T02:04:42.622Z,67.98
2022-10-14T02:05:47.242Z,67.97
2022-10-14T02:06:54.819Z,68.07
2022-10-14T02:08:11.873Z,67.82
2022-10-14T02:09:35.340Z,68.35
2022-10-14T02:10:34.675Z,67.66
2022-10-14T02:11:37.915Z,68.32
2022-10-14T02:12:43.510Z,68.15
2022-10-14T02:14:15.162Z,68.59
2022-10-14T02:15:39.730Z,68.32
2022-10-14T02:16:48.976Z,67.95
2022-10-14T02:17:48.359Z,67.72
2022-10-14T02:19:30.249Z,68.25
2022-10-14T02:20:35.294Z,68.01
2022-10-14T02:21:40.048Z,67.27
2022-10-14T02:22:47.374Z,67.09
2022-10-14T02:23:53.467Z,66.90
2022-10-14T02:24:56.570Z,67.38
2022-10-14T02:25:54.908Z,66.99
2022-10-14T02:26:55.672Z,66.36
2022-10-14T02:27:54.440Z,66.58
2022-10-14T02:28:53.437Z,66.82
2022-10-14T02:29:52.263Z,66.84
2022-10-14T02:31:14.648Z,66.98
2022-10-14T02:32:15.239Z,65.75
2022-10-14T02:33:12.726Z,66.10
2022-10-14T02:34:13.680Z,66.09
2022-10-14T02:35:12.583Z,66.51
2022-10-14T02:36:12.605Z,66.58
2022-10-14T02:37:10.404Z,67.61
2022-10-14T02:38:08.627Z,66.96
2022-10-14T02:39:07.938Z,67.94
2022-10-14T02:40:11.897Z,67.97
2022-10-14T02:41:13.930Z,68.20
2022-10-14T02:42:10.622Z,68.69
2022-10-14T02:43:10.150Z,68.69
2022-10-14T02:44:06.870Z,69.43
2022-10-14T02:45:03.736Z,69.65
2022-10-14T02:46:03.222Z,70.09
2022-10-14T02:46:59.805Z,69.95
2022-10-14T02:47:56.413Z,69.71
2022-10-14T02:48:52.976Z,69.87
2022-10-14T02:49:49.717Z,69.47
2022-10-14T02:50:46.383Z,69.00
2022-10-14T02:51:42.950Z,68.82
2022-10-14T02:52:39.523Z,68.86
2022-10-14T02:53:36.101Z,69.17
2022-10-14T02:54:32.817Z,69.63
2022-10-14T02:55:29.801Z,69.67
2022-10-14T02:56:26.392Z,69.18
2022-10-14T02:57:22.984Z,69.67
2022-10-14T02:58:19.629Z,69.49
2022-10-14T02:59:16.216Z,68.51
2022-10-14T03:00:13.279Z,68.54
2022-10-14T03:01:09.927Z,68.09
2022-10-14T03:02:07.628Z,67.37
2022-10-14T03:03:04.334Z,66.11
2022-10-14T03:04:00.907Z,66.23
2022-10-14T03:04:58.197Z,65.44
2022-10-14T03:05:54.747Z,65.80
2022-10-14T03:06:51.347Z,66.32
2022-10-14T03:07:47.936Z,67.26
2022-10-14T03:08:44.529Z,67.29
2022-10-14T03:09:41.078Z,66.63
2022-10-14T03:10:37.635Z,66.27
2022-10-14T03:11:34.182Z,65.67
2022-10-14T03:12:30.738Z,66.36
2022-10-14T03:13:27.320Z,65.67
2022-10-14T03:14:24.112Z,67.00
2022-10-14T03:15:21.003Z,67.22
2022-10-14T03:16:17.587Z,66.19
2022-10-14T03:17:14.356Z,66.48
2022-10-14T03:18:10.980Z,65.50
2022-10-14T03:19:07.637Z,65.63
2022-10-14T03:20:07.739Z,67.37
2022-10-14T03:21:04.377Z,68.82
2022-10-14T03:22:01.239Z,68.49
2022-10-14T03:22:57.912Z,69.09
2022-10-14T03:23:54.548Z,68.56
2022-10-14T03:24:51.146Z,68.77
2022-10-14T03:25:47.824Z,68.63
2022-10-14T03:26:44.441Z,69.17
2022-10-14T03:27:41.112Z,69.61
2022-10-14T03:28:37.721Z,68.99
2022-10-14T03:29:34.329Z,69.59
2022-10-14T03:30:31.423Z,68.74
2022-10-14T03:31:28.024Z,68.82
2022-10-14T03:32:24.721Z,69.38
2022-10-14T03:33:24.543Z,70.13
2022-10-14T03:34:22.525Z,70.10
2022-10-14T03:35:19.265Z,69.49
2022-10-14T03:36:15.858Z,70.13
2022-10-14T03:37:12.486Z,70.28
2022-10-14T03:38:09.078Z,70.26
2022-10-14T03:39:05.652Z,71.05
2022-10-14T03:40:02.213Z,70.92
2022-10-14T03:40:58.787Z,70.85
2022-10-14T03:41:55.418Z,70.27
2022-10-14T03:42:51.978Z,68.68
2022-10-14T03:43:48.535Z,68.11
2022-10-14T03:44:46.269Z,68.82
2022-10-14T03:45:45.349Z,66.37
2022-10-14T03:46:41.944Z,68.27
2022-10-14T03:47:38.606Z,68.02
2022-10-14T03:48:35.201Z,66.64
2022-10-14T03:49:31.795Z,67.45
2022-10-14T03:50:28.638Z,68.20
2022-10-14T03:51:25.358Z,68.73
2022-10-14T03:52:22.441Z,68.22
2022-10-14T03:53:19.249Z,68.53
2022-10-14T03:54:15.989Z,68.24
2022-10-14T03:55:12.792Z,67.32
2022-10-14T03:56:09.362Z,66.44
2022-10-14T03:57:05.946Z,67.04
2022-10-14T03:58:02.513Z,66.86
2022-10-14T03:58:59.105Z,66.60
2022-10-14T03:59:55.699Z,67.34
2022-10-14T04:00:52.354Z,67.44
2022-10-14T04:01:49.055Z,67.38
2022-10-14T04:02:45.675Z,67.33
2022-10-14T04:03:42.320Z,66.90
2022-10-14T04:04:39.395Z,68.12
2022-10-14T04:05:36.296Z,67.49
2022-10-14T04:06:33.049Z,67.75
2022-10-14T04:07:29.666Z,67.43
2022-10-14T04:08:26.326Z,66.13
2022-10-14T04:09:22.950Z,66.02
2022-10-14T04:10:19.703Z,66.36
2022-10-14T04:11:17.308Z,66.38
2022-10-14T04:12:13.889Z,66.40
2022-10-14T04:13:10.886Z,66.40
2022-10-14T04:14:07.489Z,67.19
2022-10-14T04:15:04.391Z,67.50
2022-10-14T04:16:09.109Z,67.56
2022-10-14T04:17:05.711Z,66.61
2022-10-14T04:18:02.419Z,67.91
2022-10-14T04:18:59.097Z,67.81
2022-10-14T04:19:55.694Z,69.78
2022-10-14T04:20:52.332Z,70.08
2022-10-14T04:21:48.924Z,69.36
2022-10-14T04:22:46.013Z,70.68
2022-10-14T04:23:42.773Z,71.15
2022-10-14T04:24:39.397Z,70.49
2022-10-14T04:25:38.802Z,70.94
2022-10-14T04:26:35.509Z,69.41
2022-10-14T04:27:32.419Z,68.53
2022-10-14T04:28:29.088Z,69.43
2022-10-14T04:29:25.863Z,68.30
2022-10-14T04:30:22.593Z,68.85
2022-10-14T04:31:19.171Z,70.95
2022-10-14T04:32:15.867Z,70.97
2022-10-14T04:33:12.525Z,70.55
2022-10-14T04:34:10.359Z,71.61
2022-10-14T04:35:07.908Z,71.33
2022-10-14T04:36:06.376Z,70.63
2022-10-14T04:37:03.381Z,70.41
2022-10-14T04:38:00.025Z,69.83
2022-10-14T04:38:56.657Z,71.35
2022-10-14T04:39:53.236Z,70.84
2022-10-14T04:40:49.773Z,70.84
2022-10-14T04:41:46.367Z,69.17
2022-10-14T04:42:42.968Z,69.54
2022-10-14T04:43:39.555Z,71.55
2022-10-14T04:44:36.164Z,71.60
2022-10-14T04:45:32.728Z,71.27
2022-10-14T04:46:29.801Z,70.23
2022-10-14T04:47:26.388Z,71.81
2022-10-14T04:48:23.007Z,71.70
2022-10-14T04:49:19.639Z,71.77
2022-10-14T04:50:17.111Z,71.87
2022-10-14T04:51:13.986Z,71.07
2022-10-14T04:52:10.598Z,70.66
2022-10-14T04:53:13.089Z,70.99
2022-10-14T04:54:10.544Z,69.85
2022-10-14T04:55:07.546Z,70.36
2022-10-14T04:56:04.302Z,71.18
2022-10-14T04:57:01.127Z,70.81
2022-10-14T04:57:57.702Z,70.53
2022-10-14T04:58:54.340Z,70.73
2022-10-14T04:59:50.894Z,70.19
2022-10-14T05:00:47.475Z,69.88
2022-10-14T05:01:44.067Z,69.27
2022-10-14T05:02:40.712Z,69.81
2022-10-14T05:03:37.345Z,70.71
2022-10-14T05:04:33.900Z,70.41
2022-10-14T05:05:30.623Z,70.62
2022-10-14T05:06:27.590Z,69.75
2022-10-14T05:07:24.221Z,69.25
2022-10-14T05:08:20.967Z,69.21
2022-10-14T05:09:17.559Z,68.98
2022-10-14T05:10:14.271Z,70.00
2022-10-14T05:11:10.888Z,70.92
2022-10-14T05:12:07.537Z,70.05
2022-10-14T05:13:04.422Z,67.52
2022-10-14T05:14:01.076Z,66.74
2022-10-14T05:14:58.360Z,67.67
2022-10-14T05:15:55.149Z,67.20
2022-10-14T05:16:51.767Z,67.52
2022-10-14T05:17:48.425Z,67.97
2022-10-14T05:18:45.011Z,68.95
2022-10-14T05:19:41.588Z,68.93
2022-10-14T05:20:38.734Z,68.27
2022-10-14T05:21:35.701Z,68.19
2022-10-14T05:22:32.386Z,68.16
2022-10-14T05:23:28.968Z,68.02
2022-10-14T05:24:25.873Z,67.98
2022-10-14T05:25:22.477Z,68.57
2022-10-14T05:26:19.119Z,68.54
2022-10-14T05:27:15.771Z,68.26
2022-10-14T05:28:12.334Z,68.26
2022-10-14T05:29:10.803Z,68.12
2022-10-14T05:30:08.018Z,67.24
2022-10-14T05:31:05.377Z,68.62
2022-10-14T05:32:02.023Z,68.02
2022-10-14T05:32:58.831Z,67.81
2022-10-14T05:33:55.458Z,67.46
2022-10-14T05:34:52.098Z,66.91
2022-10-14T05:36:03.878Z,66.80
2022-10-14T05:37:00.500Z,66.86
2022-10-14T05:38:00.719Z,66.64
2022-10-14T05:39:00.660Z,66.74
2022-10-14T05:39:57.282Z,66.02
2022-10-14T05:40:57.872Z,65.12
2022-10-14T05:41:54.469Z,63.75
2022-10-14T05:42:51.033Z,64.46
2022-10-14T05:43:47.642Z,63.87
2022-10-14T05:44:44.205Z,63.93
2022-10-14T05:45:40.836Z,64.47
2022-10-14T05:46:37.655Z,63.89
2022-10-14T05:47:34.221Z,63.95
2022-10-14T05:48:32.231Z,64.09
2022-10-14T05:49:28.823Z,63.85
2022-10-14T05:50:25.775Z,63.87
2022-10-14T05:51:23.289Z,64.75
2022-10-14T05:52:20.243Z,65.34
2022-10-14T05:53:17.452Z,64.82
2022-10-14T05:54:14.254Z,64.91
2022-10-14T05:55:11.027Z,64.56
2022-10-14T05:56:09.842Z,63.65
2022-10-14T05:57:06.513Z,62.87
2022-10-14T05:58:04.028Z,63.29
2022-10-14T05:59:00.692Z,63.41
2022-10-14T05:59:57.377Z,64.62
2022-10-14T06:00:54.093Z,64.41
2022-10-14T06:01:51.171Z,63.88
2022-10-14T06:02:47.966Z,64.28
2022-10-14T06:03:44.733Z,64.66
2022-10-14T06:04:42.536Z,64.56
2022-10-14T06:05:39.254Z,63.98
2022-10-14T06:06:36.012Z,64.09
2022-10-14T06:07:36.341Z,64.53
2022-10-14T06:08:33.076Z,63.60
2022-10-14T06:09:31.321Z,62.37
2022-10-14T06:10:28.207Z,63.24
2022-10-14T06:11:24.935Z,64.16
2022-10-14T06:12:21.996Z,62.52
2022-10-14T06:13:19.161Z,61.52
2022-10-14T06:14:15.830Z,61.79
2022-10-14T06:15:12.596Z,62.17
2022-10-14T06:16:10.862Z,62.58
2022-10-14T06:17:08.135Z,61.04
2022-10-14T06:18:05.100Z,61.09
2022-10-14T06:19:02.052Z,59.95
2022-10-14T06:19:58.841Z,60.59
2022-10-14T06:20:55.835Z,60.79
2022-10-14T06:21:52.636Z,61.04
2022-10-14T06:22:49.349Z,61.07
2022-10-14T06:23:46.230Z,60.45
2022-10-14T06:24:42.990Z,61.09
2022-10-14T06:25:40.344Z,60.55
2022-10-14T06:26:37.295Z,59.88
2022-10-14T06:27:34.064Z,60.05
2022-10-14T06:28:30.961Z,58.81
2022-10-14T06:29:31.861Z,58.14
2022-10-14T06:30:28.734Z,57.92
2022-10-14T06:31:29.832Z,58.29
2022-10-14T06:32:28.842Z,58.69
2022-10-14T06:33:25.564Z,58.45
2022-10-14T06:34:24.448Z,59.18
2022-10-14T06:35:21.338Z,59.32
2022-10-14T06:36:18.233Z,58.53
2022-10-14T06:37:14.981Z,58.33
2022-10-14T06:38:11.688Z,57.70
2022-10-14T06:39:08.422Z,57.99
2022-10-14T06:40:05.723Z,58.48
2022-10-14T06:41:02.487Z,59.01
2022-10-14T06:41:59.347Z,58.76
2022-10-14T06:42:58.529Z,57.81
2022-10-14T06:43:55.318Z,57.54
2022-10-14T06:44:52.178Z,57.13
2022-10-14T06:45:49.300Z,58.10
2022-10-14T06:46:46.204Z,57.17
2022-10-14T06:47:43.381Z,56.62
2022-10-14T06:48:40.110Z,56.40
2022-10-14T06:49:36.787Z,57.10
2022-10-14T06:50:33.574Z,56.35
2022-10-14T06:51:30.289Z,56.65
2022-10-14T06:52:27.033Z,57.38
2022-10-14T06:53:23.906Z,57.45
2022-10-14T06:54:21.128Z,57.13
2022-10-14T06:55:20.098Z,57.53
2022-10-14T06:56:17.586Z,57.38
2022-10-14T06:57:14.327Z,58.40
2022-10-14T06:58:11.287Z,57.58
2022-10-14T06:59:08.753Z,57.57
2022-10-14T07:00:07.720Z,57.24
2022-10-14T07:01:06.003Z,57.84
2022-10-14T07:02:02.841Z,58.16
2022-10-14T07:03:00.058Z,58.14
2022-10-14T07:03:57.018Z,58.40
2022-10-14T07:04:53.868Z,57.89
2022-10-14T07:05:50.929Z,58.00
2022-10-14T07:06:47.914Z,57.98
2022-10-14T07:07:44.681Z,58.48
2022-10-14T07:08:42.150Z,58.71
2022-10-14T07:09:38.995Z,58.56
2022-10-14T07:10:35.850Z,58.78
2022-10-14T07:11:32.638Z,58.27
2022-10-14T07:12:29.441Z,58.44
2022-10-14T07:13:26.555Z,57.36
2022-10-14T07:14:23.369Z,58.52
2022-10-14T07:15:20.158Z,58.53
2022-10-14T07:16:16.939Z,57.97
2022-10-14T07:17:13.756Z,58.20
2022-10-14T07:18:10.472Z,58.31
2022-10-14T07:19:07.316Z,58.05
2022-10-14T07:20:04.400Z,57.73
2022-10-14T07:21:05.402Z,58.05
2022-10-14T07:22:02.237Z,57.81
2022-10-14T07:22:59.168Z,58.62
2022-10-14T07:23:56.062Z,58.88
2022-10-14T07:24:52.912Z,59.13
2022-10-14T07:25:49.669Z,59.24
2022-10-14T07:26:46.588Z,59.41
2022-10-14T07:27:43.931Z,58.52
2022-10-14T07:28:41.039Z,58.66
2022-10-14T07:29:38.079Z,58.53
2022-10-14T07:30:35.315Z,58.72
2022-10-14T07:31:32.440Z,57.22
2022-10-14T07:32:29.196Z,56.48
2022-10-14T07:33:25.999Z,56.12
2022-10-14T07:34:22.976Z,56.28
2022-10-14T07:35:20.302Z,56.26
2022-10-14T07:36:21.538Z,56.45
2022-10-14T07:37:19.792Z,56.24
2022-10-14T07:38:16.781Z,55.03
2022-10-14T07:39:13.653Z,56.31
2022-10-14T07:40:11.581Z,56.72
2022-10-14T07:41:18.714Z,55.73
2022-10-14T07:42:15.600Z,55.54
2022-10-14T07:43:12.446Z,55.06
2022-10-14T07:44:09.972Z,55.64
2022-10-14T07:45:07.864Z,53.89
2022-10-14T07:46:07.804Z,53.64
2022-10-14T07:47:06.702Z,52.54
2022-10-14T07:48:04.170Z,55.20
2022-10-14T07:49:11.710Z,54.57
2022-10-14T07:50:09.100Z,54.86
2022-10-14T07:51:09.743Z,53.65
2022-10-14T07:52:06.610Z,54.34
2022-10-14T07:53:03.823Z,54.25
2022-10-14T07:54:02.332Z,53.83
2022-10-14T07:54:59.182Z,54.83
2022-10-14T07:55:59.413Z,55.43
2022-10-14T07:56:58.019Z,55.43
2022-10-14T07:57:54.921Z,54.97
2022-10-14T07:58:52.598Z,54.84
2022-10-14T07:59:49.614Z,55.26
2022-10-14T08:00:46.733Z,55.25
2022-10-14T08:01:43.753Z,55.99
2022-10-14T08:02:40.869Z,55.77
2022-10-14T08:03:37.649Z,55.74
2022-10-14T08:04:34.469Z,56.97
2022-10-14T08:05:39.123Z,56.85
2022-10-14T08:06:38.002Z,55.88
2022-10-14T08:07:35.942Z,56.46
2022-10-14T08:08:33.649Z,56.52
2022-10-14T08:09:31.405Z,57.10
2022-10-14T08:10:32.364Z,57.69
2022-10-14T08:11:29.863Z,57.85
2022-10-14T08:12:26.723Z,57.51
2022-10-14T08:13:23.623Z,56.71
2022-10-14T08:14:20.468Z,57.28
2022-10-14T08:15:17.541Z,56.41
2022-10-14T08:16:17.655Z,56.93
2022-10-14T08:17:14.520Z,57.29
2022-10-14T08:18:12.093Z,58.68
2022-10-14T08:19:14.400Z,57.75
2022-10-14T08:20:13.255Z,57.06
2022-10-14T08:21:11.157Z,56.74
2022-10-14T08:22:07.997Z,56.06
2022-10-14T08:23:04.869Z,56.49
2022-10-14T08:24:01.991Z,57.45
2022-10-14T08:24:58.806Z,57.51
2022-10-14T08:25:55.617Z,57.34
2022-10-14T08:26:55.163Z,57.53
2022-10-14T08:27:54.154Z,57.94
2022-10-14T08:28:51.799Z,57.62
2022-10-14T08:29:48.680Z,56.96
2022-10-14T08:30:45.649Z,57.06
2022-10-14T08:31:42.489Z,57.17
2022-10-14T08:32:39.408Z,57.91
2022-10-14T08:33:36.251Z,58.23
2022-10-14T08:34:33.785Z,57.22
2022-10-14T08:35:30.586Z,56.85
2022-10-14T08:36:27.739Z,57.30
2022-10-14T08:37:24.661Z,57.05
2022-10-14T08:38:25.248Z,56.07
2022-10-14T08:39:25.145Z,55.69
2022-10-14T08:40:22.130Z,55.92
2022-10-14T08:41:43.746Z,56.31
2022-10-14T08:42:51.206Z,56.41
2022-10-14T08:44:11.809Z,55.90
2022-10-14T08:45:19.518Z,55.76
2022-10-14T08:46:33.763Z,56.86
2022-10-14T08:47:41.471Z,56.08
2022-10-14T08:48:39.105Z,56.55
2022-10-14T08:49:54.738Z,54.54
2022-10-14T08:50:57.339Z,55.05
2022-10-14T08:52:14.295Z,53.90
2022-10-14T08:53:16.552Z,53.75
2022-10-14T08:54:25.479Z,53.73
2022-10-14T08:55:51.695Z,54.39
2022-10-14T08:56:48.707Z,54.27
2022-10-14T08:57:52.898Z,53.32
2022-10-14T08:58:52.680Z,53.89
2022-10-14T08:59:49.558Z,53.88
2022-10-14T09:00:49.898Z,54.89
2022-10-14T09:02:25.658Z,54.61
2022-10-14T09:03:22.539Z,55.43
2022-10-14T09:04:20.194Z,54.78
2022-10-14T09:05:26.569Z,54.33
2022-10-14T09:06:32.020Z,55.18
2022-10-14T09:07:30.928Z,54.90
2022-10-14T09:08:42.193Z,54.00
2022-10-14T09:09:42.469Z,53.89
2022-10-14T09:10:42.481Z,52.86
2022-10-14T09:11:43.945Z,53.25
2022-10-14T09:12:47.884Z,53.34
2022-10-14T09:13:49.425Z,53.85
2022-10-14T09:14:49.313Z,53.46
2022-10-14T09:15:50.552Z,52.43
2022-10-14T09:16:54.178Z,52.52
2022-10-14T09:18:07.246Z,52.57
2022-10-14T09:19:12.314Z,52.69
2022-10-14T09:20:11.882Z,53.01
2022-10-14T09:21:51.778Z,53.71
2022-10-14T09:22:58.324Z,54.05
2022-10-14T09:24:14.705Z,53.32
2022-10-14T09:25:18.454Z,53.13
2022-10-14T09:26:20.194Z,52.47
2022-10-14T09:27:26.936Z,52.90
2022-10-14T09:28:32.724Z,52.35
2022-10-14T09:29:34.231Z,53.05
2022-10-14T09:30:39.079Z,53.40
2022-10-14T09:31:35.960Z,52.80
2022-10-14T09:33:05.652Z,52.52
2022-10-14T09:34:02.590Z,52.86
2022-10-14T09:35:02.764Z,52.13
2022-10-14T09:37:27.053Z,53.08
2022-10-14T09:38:28.757Z,51.70
2022-10-14T09:39:25.686Z,52.25
2022-10-14T09:40:31.111Z,51.99
2022-10-14T09:41:31.152Z,51.74
2022-10-14T09:42:44.692Z,52.61
2022-10-14T09:44:21.992Z,51.31
2022-10-14T09:45:22.763Z,51.30
2022-10-14T09:46:19.895Z,51.01
2022-10-14T09:47:19.184Z,50.96
2022-10-14T09:48:29.090Z,50.40
2022-10-14T09:49:39.104Z,51.19
2022-10-14T09:50:47.051Z,51.10
2022-10-14T09:51:44.079Z,50.79
2022-10-14T09:52:40.941Z,51.21
2022-10-14T09:53:47.145Z,50.42
2022-10-14T09:54:46.835Z,50.42
2022-10-14T09:55:54.363Z,50.79
2022-10-14T09:57:00.054Z,50.89
2022-10-14T09:58:04.253Z,50.76
2022-10-14T09:59:02.185Z,50.53
2022-10-14T10:00:01.254Z,50.55
2022-10-14T10:01:00.522Z,51.07
2022-10-14T10:02:01.301Z,50.83
2022-10-14T10:02:58.490Z,50.66
2022-10-14T10:04:00.095Z,51.88
2022-10-14T10:04:57.357Z,50.92
2022-10-14T10:06:12.134Z,51.63
2022-10-14T10:07:24.525Z,51.94
2022-10-14T10:08:21.938Z,52.14
2022-10-14T10:09:21.990Z,52.42
2022-10-14T10:10:24.730Z,52.41
2022-10-14T10:11:38.945Z,52.53
2022-10-14T10:12:36.156Z,53.80
2022-10-14T10:13:48.246Z,53.32
2022-10-14T10:14:56.789Z,54.69
2022-10-14T10:16:05.518Z,54.92
2022-10-14T10:17:08.141Z,53.88
2022-10-14T10:18:19.074Z,53.98
2022-10-14T10:19:25.130Z,53.18
2022-10-14T10:20:45.460Z,53.86
2022-10-14T10:21:42.371Z,53.83
2022-10-14T10:22:42.475Z,53.19
2022-10-14T10:23:50.672Z,53.88
2022-10-14T10:24:48.397Z,53.32
2022-10-14T10:25:45.224Z,53.67
2022-10-14T10:26:41.814Z,54.49
2022-10-14T10:27:45.931Z,53.46
2022-10-14T10:28:47.949Z,53.02
2022-10-14T10:29:44.659Z,53.29
2022-10-14T10:31:07.001Z,52.37
2022-10-14T10:32:09.884Z,52.69
2022-10-14T10:33:21.587Z,52.73
2022-10-14T10:34:37.782Z,52.65
2022-10-14T10:35:58.755Z,52.77
2022-10-14T10:37:26.297Z,52.03
2022-10-14T10:38:30.977Z,51.64
2022-10-14T10:40:08.798Z,51.78
2022-10-14T10:41:37.248Z,51.68
2022-10-14T10:42:43.390Z,51.87
2022-10-14T10:43:46.037Z,52.53
2022-10-14T10:45:00.259Z,51.14
2022-10-14T10:46:11.662Z,51.80
2022-10-14T10:47:36.043Z,51.59
2022-10-14T10:48:47.477Z,51.79
2022-10-14T10:49:47.310Z,52.18
2022-10-14T10:50:48.718Z,51.87
2022-10-14T10:52:28.458Z,51.51
2022-10-14T10:53:29.684Z,51.21
2022-10-14T10:55:01.904Z,51.82
2022-10-14T10:56:25.788Z,51.62
2022-10-14T10:57:48.670Z,51.27
2022-10-14T10:58:56.546Z,50.74
2022-10-14T11:00:17.146Z,51.33
2022-10-14T11:01:14.714Z,51.90
2022-10-14T11:02:38.240Z,51.49
2022-10-14T11:03:43.889Z,51.69
2022-10-14T11:04:43.258Z,50.86
2022-10-14T11:06:13.707Z,51.73
2022-10-14T11:07:47.076Z,50.03
2022-10-14T11:09:24.663Z,49.47
2022-10-14T11:10:50.028Z,49.27
2022-10-14T11:12:17.769Z,49.32
2022-10-14T11:13:38.118Z,49.52
2022-10-14T11:15:20.072Z,48.98
2022-10-14T11:16:16.841Z,49.95
2022-10-14T11:17:28.405Z,49.38
2022-10-14T11:18:28.119Z,49.63
2022-10-14T11:19:34.090Z,49.95
2022-10-14T11:20:42.117Z,50.54
2022-10-14T11:21:38.761Z,49.21
2022-10-14T11:22:47.069Z,49.43
2022-10-14T11:23:46.185Z,48.55
2022-10-14T11:25:22.842Z,48.13
2022-10-14T11:26:41.663Z,48.16
2022-10-14T11:27:57.799Z,47.61
2022-10-14T11:29:03.603Z,47.30
2022-10-14T11:30:18.740Z,47.59
2022-10-14T11:31:26.977Z,48.39
2022-10-14T11:32:57.488Z,48.21
2022-10-14T11:34:19.571Z,48.37
2022-10-14T11:36:44.378Z,47.44
2022-10-14T11:37:53.268Z,48.41
2022-10-14T11:39:04.737Z,47.99
2022-10-14T11:40:24.503Z,48.13
2022-10-14T11:41:46.084Z,48.66
2022-10-14T11:43:28.911Z,47.67
2022-10-14T11:44:36.614Z,48.14
2022-10-14T11:45:36.002Z,47.45
2022-10-14T11:46:45.912Z,47.68
2022-10-14T11:47:47.579Z,48.34
2022-10-14T11:48:55.860Z,47.99
2022-10-14T11:50:16.753Z,47.97
2022-10-14T11:51:22.405Z,48.58
2022-10-14T11:52:29.088Z,49.13
2022-10-14T11:53:58.610Z,47.65
2022-10-14T11:55:03.264Z,47.70
2022-10-14T11:56:09.603Z,47.15
2022-10-14T11:57:26.363Z,48.16
2022-10-14T11:58:26.763Z,47.70
2022-10-14T11:59:38.358Z,47.22
2022-10-14T12:00:56.147Z,47.36
2022-10-14T12:02:00.752Z,49.08
2022-10-14T12:03:25.924Z,47.92
2022-10-14T12:04:30.783Z,48.72
2022-10-14T12:06:02.259Z,48.66
2022-10-14T12:07:25.085Z,47.81
2022-10-14T12:08:53.367Z,48.65
2022-10-14T12:09:59.886Z,48.79
2022-10-14T12:11:24.336Z,48.03
2022-10-14T12:12:26.193Z,48.39
2022-10-14T12:13:33.170Z,48.30
2022-10-14T12:14:52.482Z,47.30
2022-10-14T12:15:52.392Z,47.49
2022-10-14T12:16:49.919Z,47.42
2022-10-14T12:18:00.565Z,47.04
2022-10-14T12:18:58.385Z,47.53
2022-10-14T12:19:57.680Z,47.61
2022-10-14T12:21:03.985Z,48.39
2022-10-14T12:22:40.898Z,48.13
2022-10-14T12:23:47.768Z,47.17
2022-10-14T12:24:55.974Z,46.70
2022-10-14T12:26:16.173Z,46.85
2022-10-14T12:27:17.607Z,46.76
2022-10-14T12:28:19.087Z,46.68
2022-10-14T12:29:22.740Z,47.94
2022-10-14T12:30:40.755Z,47.15
2022-10-14T12:31:40.624Z,47.30
2022-10-14T12:33:02.539Z,47.19
2022-10-14T12:34:15.927Z,47.05
2022-10-14T12:35:47.495Z,47.34
2022-10-14T12:36:50.776Z,47.45
2022-10-14T12:37:51.978Z,48.30
2022-10-14T12:39:17.596Z,48.26
2022-10-14T12:40:14.240Z,48.95
2022-10-14T12:41:55.771Z,47.13
2022-10-14T12:43:00.183Z,47.96
2022-10-14T12:44:04.758Z,48.42
2022-10-14T12:45:14.344Z,48.15
2022-10-14T12:46:14.982Z,48.26
2022-10-14T12:47:33.626Z,48.72
2022-10-14T12:48:33.932Z,48.14
2022-10-14T12:49:35.138Z,48.26
2022-10-14T12:50:37.657Z,47.23
2022-10-14T12:51:34.163Z,47.09
2022-10-14T12:52:37.471Z,47.24
2022-10-14T12:53:35.665Z,46.68
2022-10-14T12:54:34.420Z,47.39
2022-10-14T12:55:39.281Z,46.81
2022-10-14T12:56:58.854Z,46.47
2022-10-14T12:58:05.027Z,46.64
2022-10-14T12:59:05.662Z,46.78
2022-10-14T13:00:14.818Z,48.35
2022-10-14T13:01:16.834Z,46.78
2022-10-14T13:02:32.452Z,46.66
2022-10-14T13:03:34.310Z,44.88
2022-10-14T13:04:32.181Z,44.33
2022-10-14T13:05:43.729Z,46.60
2022-10-14T13:06:45.054Z,44.97
2022-10-14T13:07:43.882Z,45.61
2022-10-14T13:08:40.942Z,46.01
2022-10-14T13:09:37.649Z,45.71
2022-10-14T13:10:45.871Z,45.60
2022-10-14T13:12:04.487Z,45.47
2022-10-14T13:13:42.300Z,47.59
2022-10-14T13:14:59.314Z,47.62
2022-10-14T13:15:55.887Z,47.20
2022-10-14T13:16:52.442Z,46.31
2022-10-14T13:17:49.022Z,47.00
2022-10-14T13:18:45.621Z,48.31
2022-10-14T13:19:43.592Z,47.74
2022-10-14T13:20:46.164Z,48.19
2022-10-14T13:21:42.705Z,47.74
2022-10-14T13:22:40.158Z,48.40
2022-10-14T13:23:52.754Z,49.22
2022-10-14T13:24:49.411Z,49.11